Time;durP1;ratioP1;P1;durP2;ratioP2;P2;SDS_P1;SDS_P2;PMS_P1;PMS_P2;Temp;Humidity;BMP_temperature;BMP_pressure;BME280_temperature;BME280_humidity;BME280_pressure;Samples;Min_cycle;Max_cycle;Signal;HPM_P1;HPM_P2
2023/12/28 00:00:37;;;;;;;13.90;8.00;;;;;;;-2.12;83.95;96601.70;110618;1274;22141;-77
2023/12/28 00:03:25;;;;;;;3.90;1.60;;;;;;;-2.16;83.32;96606.20;110491;1274;22208;-77
2023/12/28 00:05:54;;;;;;;2.10;1.60;;;;;;;-2.17;83.59;96605.30;110476;1274;22208;-77
2023/12/28 00:08:22;;;;;;;2.00;1.40;;;;;;;-2.10;83.94;96606.11;110458;1274;22158;-77
2023/12/28 00:10:51;;;;;;;1.60;1.30;;;;;;;-2.04;84.18;96609.51;110494;1274;22126;-77
2023/12/28 00:13:19;;;;;;;2.40;1.60;;;;;;;-1.98;84.18;96611.52;110511;1274;23032;-77
2023/12/28 00:15:47;;;;;;;3.30;1.80;;;;;;;-1.88;84.60;96604.75;110081;1274;549953;-77
2023/12/28 00:18:16;;;;;;;2.60;1.40;;;;;;;-1.81;84.03;96603.16;110570;1274;22232;-77
2023/12/28 00:20:48;;;;;;;10.90;4.80;;;;;;;-1.83;83.37;96601.70;110497;1274;22150;-77
2023/12/28 00:23:16;;;;;;;4.60;2.00;;;;;;;-1.87;83.47;96598.57;110583;1275;22840;-77
2023/12/28 00:25:44;;;;;;;9.50;4.70;;;;;;;-1.87;83.43;96604.11;110492;1274;22227;-77
2023/12/28 00:28:13;;;;;;;6.00;3.60;;;;;;;-1.88;83.30;96598.38;110489;1274;23462;-77
2023/12/28 00:30:41;;;;;;;4.20;3.00;;;;;;;-1.90;83.15;96599.13;110508;1274;22159;-77
2023/12/28 00:33:09;;;;;;;11.00;6.10;;;;;;;-1.89;83.43;96598.14;110513;1274;22390;-77
2023/12/28 00:35:37;;;;;;;6.80;4.60;;;;;;;-1.83;83.49;96600.81;110481;1274;23047;-77
2023/12/28 00:38:05;;;;;;;3.60;1.80;;;;;;;-1.88;82.56;96599.23;110585;1274;22148;-77
2023/12/28 00:40:34;;;;;;;3.20;1.20;;;;;;;-1.89;83.06;96595.55;110503;1274;22205;-77
2023/12/28 00:43:03;;;;;;;2.60;1.50;;;;;;;-1.83;83.47;96604.95;110533;1271;22314;-77
2023/12/28 00:45:31;;;;;;;2.70;1.70;;;;;;;-1.84;83.14;96613.73;110484;1274;22133;-77
2023/12/28 00:48:00;;;;;;;2.80;1.80;;;;;;;-1.87;82.99;96615.84;110589;1275;22203;-77
2023/12/28 00:50:31;;;;;;;4.50;2.00;;;;;;;-1.96;82.85;96616.96;110500;1274;22130;-77
2023/12/28 00:53:00;;;;;;;3.50;2.10;;;;;;;-2.09;83.04;96620.50;110610;1274;22178;-76
2023/12/28 00:55:28;;;;;;;5.40;2.90;;;;;;;-2.21;82.92;96621.14;110507;1274;22199;-77
2023/12/28 00:57:56;;;;;;;6.40;3.20;;;;;;;-2.33;82.76;96619.55;110496;1274;22160;-77
2023/12/28 01:00:25;;;;;;;3.50;1.90;;;;;;;-2.40;82.94;96624.21;110586;1274;22220;-77
2023/12/28 01:02:53;;;;;;;1.90;1.50;;;;;;;-2.37;83.36;96626.05;110514;1274;22119;-77
2023/12/28 01:05:22;;;;;;;3.20;1.30;;;;;;;-2.37;83.83;96626.25;110596;1274;22730;-77
2023/12/28 01:07:50;;;;;;;2.00;1.00;;;;;;;-2.42;83.24;96622.20;110505;1274;22159;-77
2023/12/28 01:10:18;;;;;;;1.90;1.00;;;;;;;-2.43;83.48;96610.98;110541;1274;22891;-77
2023/12/28 01:12:47;;;;;;;1.20;0.70;;;;;;;-2.41;83.75;96604.04;110605;1274;22139;-77
2023/12/28 01:15:17;;;;;;;2.20;1.00;;;;;;;-2.44;83.52;96604.74;110518;1274;22132;-77
2023/12/28 01:17:46;;;;;;;2.80;1.60;;;;;;;-2.45;83.80;96608.99;110533;1274;22141;-77
2023/12/28 01:20:14;;;;;;;8.00;4.80;;;;;;;-2.49;83.81;96610.84;110527;1274;22137;-77
2023/12/28 01:22:44;;;;;;;3.30;1.70;;;;;;;-2.54;83.95;96610.96;110530;1274;22104;-76
2023/12/28 01:25:12;;;;;;;1.50;1.00;;;;;;;-2.57;83.80;96603.41;110362;1274;22973;-77
2023/12/28 01:27:41;;;;;;;2.40;1.40;;;;;;;-2.54;83.80;96607.34;110489;1274;22144;-77
2023/12/28 01:30:11;;;;;;;5.40;2.70;;;;;;;-2.53;84.05;96611.73;110484;1274;22759;-77
2023/12/28 01:32:39;;;;;;;3.00;1.90;;;;;;;-2.55;84.28;96614.86;110501;1274;23049;-77
2023/12/28 01:35:08;;;;;;;3.40;2.20;;;;;;;-2.59;84.16;96612.77;110600;1274;22353;-77
2023/12/28 01:37:36;;;;;;;1.60;1.20;;;;;;;-2.63;83.96;96599.88;110536;1274;22214;-77
2023/12/28 01:40:05;;;;;;;6.30;3.50;;;;;;;-2.61;84.09;96597.05;110621;1274;22238;-77
2023/12/28 01:42:35;;;;;;;2.90;2.10;;;;;;;-2.62;83.86;96599.60;110479;1274;22240;-77
2023/12/28 01:45:04;;;;;;;8.70;4.50;;;;;;;-2.66;84.65;96594.40;110612;1274;22921;-77
2023/12/28 01:47:33;;;;;;;7.70;4.70;;;;;;;-2.72;84.43;96597.51;110553;1274;22127;-77
2023/12/28 01:50:02;;;;;;;4.30;2.30;;;;;;;-2.80;84.11;96593.52;110575;1274;22172;-77
2023/12/28 01:52:31;;;;;;;2.90;2.00;;;;;;;-2.85;84.94;96589.52;110587;1274;22116;-77
2023/12/28 01:54:59;;;;;;;2.40;1.20;;;;;;;-2.81;84.65;96591.94;110481;1267;22183;-77
2023/12/28 01:57:28;;;;;;;2.60;1.40;;;;;;;-2.72;84.76;96589.07;110598;1274;22153;-77
2023/12/28 02:00:01;;;;;;;6.90;2.80;;;;;;;-2.67;84.91;96587.79;110442;1275;22264;-77
2023/12/28 02:02:41;;;;;;;4.90;2.90;;;;;;;-2.67;84.92;96590.74;110496;1274;22399;-77
2023/12/28 02:05:14;;;;;;;6.80;2.90;;;;;;;-2.65;84.88;96590.65;110498;1274;22103;-77
2023/12/28 02:07:42;;;;;;;6.80;3.20;;;;;;;-2.66;84.68;96589.21;110499;1275;22113;-77
2023/12/28 02:10:10;;;;;;;14.80;3.80;;;;;;;-2.70;84.28;96584.19;110462;1274;22264;-77
2023/12/28 02:12:38;;;;;;;8.10;3.40;;;;;;;-2.67;84.59;96585.91;110506;1274;22204;-77
2023/12/28 02:15:07;;;;;;;1.70;0.90;;;;;;;-2.62;84.73;96586.84;110542;1274;22133;-77
2023/12/28 02:17:55;;;;;;;3.00;1.20;;;;;;;-2.50;85.32;96588.10;110570;1274;22780;-77
2023/12/28 02:20:25;;;;;;;6.60;5.20;;;;;;;-2.38;85.23;96585.54;110463;1274;22220;-77
2023/12/28 02:22:54;;;;;;;1.60;0.90;;;;;;;-2.36;84.91;96589.25;110571;1274;22291;-77
2023/12/28 02:25:22;;;;;;;2.20;1.40;;;;;;;-2.35;84.82;96584.48;110582;1274;22163;-77
2023/12/28 02:27:50;;;;;;;7.40;4.80;;;;;;;-2.40;85.06;96579.40;110584;1274;22979;-77
2023/12/28 02:30:22;;;;;;;11.80;5.40;;;;;;;-2.37;84.95;96578.66;110580;1274;22208;-77
2023/12/28 02:33:09;;;;;;;28.80;8.10;;;;;;;-2.30;85.06;96574.02;110429;1274;22114;-77
2023/12/28 02:35:44;;;;;;;19.20;6.40;;;;;;;-2.27;84.82;96572.27;110538;1258;22198;-77
2023/12/28 02:38:14;;;;;;;20.50;7.20;;;;;;;-2.25;84.55;96578.55;110524;1274;22132;-77
2023/12/28 02:40:44;;;;;;;8.90;3.40;;;;;;;-2.28;84.21;96583.25;110499;1274;22150;-77
2023/12/28 02:43:13;;;;;;;5.20;2.50;;;;;;;-2.37;83.94;96574.40;110455;1274;22923;-77
2023/12/28 02:45:41;;;;;;;4.10;2.40;;;;;;;-2.43;84.22;96573.25;110512;1274;22167;-77
2023/12/28 02:48:09;;;;;;;32.90;17.90;;;;;;;-2.47;84.15;96571.50;110521;1270;22404;-77
2023/12/28 02:50:38;;;;;;;55.80;24.10;;;;;;;-2.50;84.12;96577.21;110561;1274;22235;-77
2023/12/28 02:53:06;;;;;;;54.30;21.50;;;;;;;-2.56;83.79;96574.69;110489;1274;22935;-77
2023/12/28 02:55:35;;;;;;;46.90;19.80;;;;;;;-2.66;83.97;96570.44;110580;1274;22832;-77
2023/12/28 02:58:04;;;;;;;47.30;23.40;;;;;;;-2.73;84.06;96573.88;110577;1274;22227;-77
2023/12/28 03:00:32;;;;;;;47.20;21.60;;;;;;;-2.79;83.98;96580.31;110609;1274;22145;-77
2023/12/28 03:03:00;;;;;;;17.30;7.60;;;;;;;-2.79;84.14;96574.09;110487;1274;22369;-77
2023/12/28 03:05:28;;;;;;;2.70;1.20;;;;;;;-2.75;84.46;96563.13;110523;1274;22248;-77
2023/12/28 03:07:58;;;;;;;2.00;0.80;;;;;;;-2.72;84.67;96554.85;110597;1274;22119;-77
2023/12/28 03:10:27;;;;;;;14.40;5.40;;;;;;;-2.73;84.72;96552.05;110568;1274;22508;-77
2023/12/28 03:12:55;;;;;;;34.80;16.00;;;;;;;-2.78;85.47;96549.17;110543;1274;22129;-77
2023/12/28 03:15:23;;;;;;;13.20;6.90;;;;;;;-2.80;85.52;96544.30;110528;1274;22292;-77
2023/12/28 03:17:52;;;;;;;42.30;20.90;;;;;;;-2.83;85.86;96546.73;110514;1274;22133;-77
2023/12/28 03:20:20;;;;;;;51.20;24.90;;;;;;;-2.88;85.54;96545.13;110541;1274;22449;-77
2023/12/28 03:22:49;;;;;;;230.00;73.90;;;;;;;-2.93;85.70;96541.25;110509;1274;22144;-77
2023/12/28 03:25:17;;;;;;;159.40;53.30;;;;;;;-2.96;85.33;96536.78;110513;1274;22312;-77
2023/12/28 03:27:45;;;;;;;119.30;40.60;;;;;;;-3.00;85.53;96535.92;110487;1274;22417;-77
2023/12/28 03:30:14;;;;;;;62.90;24.20;;;;;;;-3.03;85.72;96535.44;110571;1274;23020;-77
2023/12/28 03:32:42;;;;;;;50.20;18.80;;;;;;;-3.03;86.14;96533.19;110537;1274;22167;-77
2023/12/28 03:35:10;;;;;;;28.80;12.10;;;;;;;-3.04;86.35;96532.65;110530;1274;22131;-77
2023/12/28 03:37:38;;;;;;;4.30;2.50;;;;;;;-3.02;85.99;96529.29;110545;1274;22137;-76
2023/12/28 03:40:07;;;;;;;5.70;3.10;;;;;;;-2.96;86.19;96524.90;110574;1274;22948;-77
2023/12/28 03:42:35;;;;;;;5.30;2.00;;;;;;;-2.92;85.95;96523.75;110503;1274;22132;-77
2023/12/28 03:45:04;;;;;;;2.20;1.30;;;;;;;-2.88;86.00;96522.57;110596;1274;22870;-77
2023/12/28 03:47:33;;;;;;;20.30;8.40;;;;;;;-2.88;86.11;96530.63;110430;1274;22204;-77
2023/12/28 03:50:01;;;;;;;30.50;14.70;;;;;;;-2.93;86.29;96533.65;110509;1274;22275;-77
2023/12/28 03:52:30;;;;;;;35.60;16.80;;;;;;;-2.93;86.21;96528.00;110519;1267;22168;-76
2023/12/28 03:54:58;;;;;;;26.30;10.80;;;;;;;-2.94;86.31;96531.40;110506;1274;22168;-77
2023/12/28 03:57:27;;;;;;;24.90;10.30;;;;;;;-2.92;86.70;96526.52;110548;1274;22126;-77
2023/12/28 03:59:56;;;;;;;3.90;1.60;;;;;;;-2.88;86.35;96523.39;110523;1274;22739;-77
2023/12/28 04:02:27;;;;;;;1.60;1.00;;;;;;;-2.76;86.51;96517.44;110579;1274;22166;-77
2023/12/28 04:04:55;;;;;;;1.30;0.90;;;;;;;-2.64;86.74;96520.27;110568;1274;22870;-77
2023/12/28 04:07:24;;;;;;;2.60;1.40;;;;;;;-2.51;86.94;96516.73;110553;1274;22141;-77
2023/12/28 04:09:53;;;;;;;1.20;0.90;;;;;;;-2.35;87.28;96504.66;110514;1274;22365;-77
2023/12/28 04:12:21;;;;;;;4.70;2.60;;;;;;;-2.26;86.76;96499.23;110544;1274;22212;-77
2023/12/28 04:14:49;;;;;;;15.20;6.70;;;;;;;-2.26;86.41;96495.64;110511;1274;22836;-77
2023/12/28 04:17:17;;;;;;;16.70;6.10;;;;;;;-2.24;86.30;96499.20;110400;1274;22732;-77
2023/12/28 04:19:46;;;;;;;19.00;8.10;;;;;;;-2.15;86.34;96496.96;110538;1274;23166;-77
2023/12/28 04:22:14;;;;;;;3.40;1.40;;;;;;;-2.06;86.41;96498.73;110555;1274;22148;-77
2023/12/28 04:24:42;;;;;;;3.00;1.20;;;;;;;-1.97;86.61;96488.46;110606;1274;22146;-77
2023/12/28 04:27:10;;;;;;;3.30;1.40;;;;;;;-1.89;86.40;96490.35;110529;1274;22287;-77
2023/12/28 04:29:38;;;;;;;2.60;1.30;;;;;;;-1.76;86.37;96485.04;110550;1274;22136;-77
2023/12/28 04:32:07;;;;;;;2.40;1.30;;;;;;;-1.64;86.63;96490.07;110561;1274;22171;-77
2023/12/28 04:34:36;;;;;;;2.10;1.20;;;;;;;-1.62;85.66;96487.90;110574;1274;22455;-77
2023/12/28 04:37:04;;;;;;;31.20;10.70;;;;;;;-1.60;85.55;96490.55;110561;1274;22129;-78
2023/12/28 04:39:32;;;;;;;47.60;18.50;;;;;;;-1.66;84.23;96498.27;110561;1274;22139;-77
2023/12/28 04:42:01;;;;;;;37.50;15.50;;;;;;;-1.72;83.89;96493.69;110537;1274;22118;-77
2023/12/28 04:44:30;;;;;;;16.30;6.40;;;;;;;-1.84;83.72;96492.81;110524;1274;22132;-77
2023/12/28 04:46:58;;;;;;;8.10;2.60;;;;;;;-1.87;84.26;96495.25;110492;1275;22144;-77
2023/12/28 04:49:26;;;;;;;7.50;2.80;;;;;;;-1.88;84.51;96490.23;110600;1274;22105;-77
2023/12/28 04:51:55;;;;;;;101.80;43.80;;;;;;;-1.92;84.76;96491.77;110577;1274;22210;-77
2023/12/28 04:54:23;;;;;;;9.00;4.60;;;;;;;-2.01;84.40;96485.86;110554;1274;22300;-77
2023/12/28 04:56:51;;;;;;;3.00;1.30;;;;;;;-2.00;84.97;96484.05;110541;1274;22137;-77
2023/12/28 04:59:20;;;;;;;3.30;0.80;;;;;;;-1.96;84.99;96484.23;110402;1274;22208;-77
2023/12/28 05:01:49;;;;;;;1.10;1.00;;;;;;;-1.96;85.25;96483.71;110505;1274;23184;-77
2023/12/28 05:04:17;;;;;;;1.90;1.20;;;;;;;-1.99;85.27;96483.56;110559;1274;22154;-77
2023/12/28 05:06:45;;;;;;;47.30;21.20;;;;;;;-2.03;85.26;96478.03;110502;1274;22883;-77
2023/12/28 05:09:14;;;;;;;51.70;22.90;;;;;;;-2.07;85.33;96481.96;110451;1274;22146;-77
2023/12/28 05:11:42;;;;;;;35.60;16.40;;;;;;;-2.14;85.27;96487.02;110578;1274;22310;-77
2023/12/28 05:14:11;;;;;;;55.20;21.50;;;;;;;-2.19;85.19;96484.76;110540;1267;22151;-77
2023/12/28 05:16:39;;;;;;;31.20;13.80;;;;;;;-2.22;85.27;96484.96;110541;1274;22205;-77
2023/12/28 05:19:08;;;;;;;4.70;2.40;;;;;;;-2.22;85.25;96489.06;110603;1274;22169;-77
2023/12/28 05:21:37;;;;;;;1.70;1.10;;;;;;;-2.22;85.28;96487.54;110520;1274;22875;-77
2023/12/28 05:24:06;;;;;;;3.60;1.60;;;;;;;-2.20;85.38;96485.71;110523;1274;22294;-77
2023/12/28 05:26:34;;;;;;;2.40;1.70;;;;;;;-2.21;85.32;96489.85;110471;1274;22181;-77
2023/12/28 05:29:02;;;;;;;1.40;1.30;;;;;;;-2.22;85.29;96491.01;110565;1274;22384;-77
2023/12/28 05:31:31;;;;;;;1.60;0.90;;;;;;;-2.25;84.92;96492.25;110599;1274;22139;-77
2023/12/28 05:33:59;;;;;;;1.30;0.90;;;;;;;-2.26;85.22;96490.47;110541;1274;22124;-77
2023/12/28 05:36:28;;;;;;;28.00;12.30;;;;;;;-2.31;86.18;96489.00;110566;1274;22906;-77
2023/12/28 05:38:56;;;;;;;4.70;2.60;;;;;;;-2.35;85.73;96491.95;110493;1274;22124;-77
2023/12/28 05:41:25;;;;;;;6.70;3.50;;;;;;;-2.33;85.84;96487.04;110504;1274;22340;-77
2023/12/28 05:43:53;;;;;;;2.10;1.10;;;;;;;-2.34;85.70;96494.73;110549;1274;22803;-77
2023/12/28 05:46:21;;;;;;;3.30;1.50;;;;;;;-2.36;85.81;96490.87;110563;1274;22121;-77
2023/12/28 05:48:49;;;;;;;1.20;0.80;;;;;;;-2.36;85.54;96496.89;110499;1274;22872;-77
2023/12/28 05:51:21;;;;;;;1.70;1.40;;;;;;;-2.35;85.60;96490.20;110517;1274;22318;-77
2023/12/28 05:53:49;;;;;;;2.30;1.70;;;;;;;-2.34;85.68;96492.15;110560;1274;22804;-77
2023/12/28 05:56:17;;;;;;;2.10;1.40;;;;;;;-2.34;85.65;96485.93;110542;1274;22286;-77
2023/12/28 05:58:47;;;;;;;4.70;2.50;;;;;;;-2.33;85.77;96481.67;110544;1274;22963;-77
2023/12/28 06:01:15;;;;;;;9.10;4.30;;;;;;;-2.36;85.97;96480.18;110519;1274;22168;-77
2023/12/28 06:03:45;;;;;;;19.40;8.70;;;;;;;-2.46;86.12;96478.01;110454;1274;22321;-77
2023/12/28 06:06:13;;;;;;;15.90;7.10;;;;;;;-2.53;86.06;96480.60;110535;1274;22235;-77
2023/12/28 06:08:41;;;;;;;9.20;3.90;;;;;;;-2.58;85.92;96485.71;110525;1274;22415;-77
2023/12/28 06:11:09;;;;;;;3.20;2.10;;;;;;;-2.55;86.14;96476.55;110555;1274;22879;-77
2023/12/28 06:13:38;;;;;;;3.70;2.10;;;;;;;-2.51;86.10;96472.44;110521;1274;22178;-77
2023/12/28 06:16:06;;;;;;;32.10;12.20;;;;;;;-2.47;86.11;96469.02;110530;1274;22306;-78
2023/12/28 06:18:34;;;;;;;79.10;33.80;;;;;;;-2.43;86.63;96469.55;110532;1274;22301;-77
2023/12/28 06:21:06;;;;;;;4.20;1.60;;;;;;;-2.39;86.87;96466.77;110537;1262;22154;-77
2023/12/28 06:23:34;;;;;;;9.20;3.90;;;;;;;-2.34;86.58;96467.50;110548;1274;22236;-77
2023/12/28 06:26:06;;;;;;;36.80;17.70;;;;;;;-2.30;86.59;96467.85;110541;1274;22339;-77
2023/12/28 06:28:34;;;;;;;16.00;7.00;;;;;;;-2.23;86.86;96476.79;110637;1274;22168;-77
2023/12/28 06:31:04;;;;;;;7.50;3.80;;;;;;;-2.13;87.11;96474.15;110546;1274;22168;-77
2023/12/28 06:33:33;;;;;;;6.90;2.90;;;;;;;-2.06;86.76;96470.14;110576;1274;22231;-78
2023/12/28 06:36:06;;;;;;;4.60;2.50;;;;;;;-1.99;86.84;96469.27;110447;1274;22144;-78
2023/12/28 06:38:34;;;;;;;2.20;1.30;;;;;;;-1.87;86.97;96470.29;110552;1274;22247;-77
2023/12/28 06:41:02;;;;;;;1.60;1.10;;;;;;;-1.76;86.99;96474.71;110437;1274;22187;-78
2023/12/28 06:43:30;;;;;;;2.80;1.90;;;;;;;-1.65;87.20;96475.36;110548;1274;22136;-77
2023/12/28 06:45:58;;;;;;;7.30;4.00;;;;;;;-1.65;86.31;96483.81;110510;1274;22926;-77
2023/12/28 06:48:27;;;;;;;2.30;1.80;;;;;;;-1.66;86.06;96483.42;110532;1274;22254;-77
2023/12/28 06:50:56;;;;;;;2.80;1.40;;;;;;;-1.56;86.70;96486.76;110519;1274;22111;-77
2023/12/28 06:53:24;;;;;;;2.00;1.10;;;;;;;-1.46;86.76;96491.66;110531;1274;22150;-77
2023/12/28 06:55:52;;;;;;;4.50;2.20;;;;;;;-1.43;86.39;96500.09;110628;1274;22275;-77
2023/12/28 06:58:20;;;;;;;25.70;12.70;;;;;;;-1.41;86.46;96496.73;110605;1274;22229;-78
2023/12/28 07:00:48;;;;;;;117.20;44.10;;;;;;;-1.44;85.44;96499.53;110519;1274;22146;-77
2023/12/28 07:03:17;;;;;;;26.00;10.50;;;;;;;-1.41;86.12;96501.73;110549;1274;22962;-78
2023/12/28 07:05:45;;;;;;;46.80;20.30;;;;;;;-1.36;86.17;96492.94;110593;1274;22127;-77
2023/12/28 07:08:13;;;;;;;3.60;1.90;;;;;;;-1.36;86.00;96495.73;110554;1274;22952;-77
2023/12/28 07:10:41;;;;;;;2.20;1.10;;;;;;;-1.30;86.30;96494.60;110596;1274;22093;-77
2023/12/28 07:13:09;;;;;;;1.30;0.90;;;;;;;-1.23;86.33;96496.24;110536;1274;22115;-77
2023/12/28 07:15:38;;;;;;;1.30;0.80;;;;;;;-1.20;86.26;96494.48;110516;1274;22150;-78
2023/12/28 07:18:06;;;;;;;2.90;1.40;;;;;;;-1.18;85.95;96494.55;110599;1274;22131;-77
2023/12/28 07:20:35;;;;;;;8.90;4.30;;;;;;;-1.22;85.92;96494.05;110527;1274;22176;-77
2023/12/28 07:23:03;;;;;;;2.70;1.60;;;;;;;-1.19;86.05;96493.83;110536;1274;23028;-77
2023/12/28 07:25:33;;;;;;;3.10;1.50;;;;;;;-1.19;85.80;96496.77;110530;1270;22150;-77
2023/12/28 07:28:01;;;;;;;4.00;2.00;;;;;;;-1.19;85.68;96498.98;110522;1274;22128;-77
2023/12/28 07:30:30;;;;;;;59.70;29.20;;;;;;;-1.17;86.04;96496.86;110595;1274;22100;-78
2023/12/28 07:32:59;;;;;;;56.90;27.30;;;;;;;-1.13;86.04;96498.73;110502;1274;22812;-77
2023/12/28 07:35:27;;;;;;;52.70;26.70;;;;;;;-1.13;85.76;96494.58;110522;1274;22114;-77
2023/12/28 07:37:55;;;;;;;61.30;30.30;;;;;;;-1.13;85.56;96496.48;110626;1274;22291;-77
2023/12/28 07:40:24;;;;;;;52.40;27.80;;;;;;;-1.11;85.74;96494.16;110514;1274;22413;-77
2023/12/28 07:42:53;;;;;;;50.30;24.50;;;;;;;-1.07;85.89;96490.01;110514;1274;22117;-78
2023/12/28 07:45:23;;;;;;;10.50;6.30;;;;;;;-1.04;85.82;96487.68;110522;1274;22167;-78
2023/12/28 07:47:51;;;;;;;74.60;38.00;;;;;;;-1.02;85.86;96483.27;110580;1274;22913;-77
2023/12/28 07:50:20;;;;;;;68.00;33.50;;;;;;;-1.02;86.23;96484.31;110570;1274;22212;-78
2023/12/28 07:52:49;;;;;;;17.30;10.50;;;;;;;-1.04;85.96;96489.42;110601;1274;22331;-77
2023/12/28 07:55:17;;;;;;;22.60;10.90;;;;;;;-1.07;85.94;96493.63;110510;1274;22270;-77
2023/12/28 07:57:45;;;;;;;47.10;25.10;;;;;;;-1.06;86.57;96495.37;110524;1274;22124;-78
2023/12/28 08:00:14;;;;;;;11.90;6.80;;;;;;;-1.04;86.59;96495.46;110525;1274;22124;-77
2023/12/28 08:02:43;;;;;;;11.50;7.10;;;;;;;-1.01;86.44;96492.64;110512;1274;22189;-77
2023/12/28 08:05:11;;;;;;;4.40;2.80;;;;;;;-0.97;86.52;96490.75;110530;1274;22077;-77
2023/12/28 08:07:39;;;;;;;4.90;3.50;;;;;;;-0.95;86.43;96491.19;110510;1274;22113;-77
2023/12/28 08:10:08;;;;;;;8.20;4.80;;;;;;;-0.88;86.61;96494.05;110629;1274;22297;-77
2023/12/28 08:12:36;;;;;;;13.70;7.50;;;;;;;-0.81;86.63;96492.93;110581;1274;22139;-77
2023/12/28 08:15:06;;;;;;;7.40;4.40;;;;;;;-0.73;86.78;96488.58;110504;1274;22113;-77
2023/12/28 08:17:34;;;;;;;38.20;17.70;;;;;;;-0.68;86.53;96484.27;110604;1274;22287;-76
2023/12/28 08:20:02;;;;;;;8.00;4.70;;;;;;;-0.57;87.09;96477.10;110617;1274;22181;-76
2023/12/28 08:22:31;;;;;;;16.00;9.50;;;;;;;-0.46;87.00;96479.60;110553;1274;22149;-76
2023/12/28 08:24:59;;;;;;;14.20;8.10;;;;;;;-0.29;87.48;96475.73;110497;1274;22989;-76
2023/12/28 08:27:27;;;;;;;17.90;11.10;;;;;;;-0.15;87.13;96470.03;110523;1274;22136;-76
2023/12/28 08:29:56;;;;;;;15.70;9.90;;;;;;;-0.03;87.08;96460.62;110520;1274;22132;-77
2023/12/28 08:32:24;;;;;;;23.60;14.20;;;;;;;0.09;86.85;96468.30;110543;1274;22248;-76
2023/12/28 08:34:52;;;;;;;14.10;8.30;;;;;;;0.15;86.71;96464.02;110526;1274;22323;-76
2023/12/28 08:37:20;;;;;;;21.80;12.70;;;;;;;0.23;86.51;96467.39;110598;1274;22129;-76
2023/12/28 08:39:49;;;;;;;25.10;14.40;;;;;;;0.27;86.42;96474.66;110567;1274;22161;-76
2023/12/28 08:42:17;;;;;;;16.90;9.20;;;;;;;0.42;86.88;96469.98;110532;1274;22167;-76
2023/12/28 08:44:45;;;;;;;23.30;12.50;;;;;;;0.47;86.11;96471.89;110589;1274;22455;-76
2023/12/28 08:47:17;;;;;;;20.90;12.50;;;;;;;0.52;86.57;96468.57;110664;1274;22133;-77
2023/12/28 08:49:45;;;;;;;18.20;11.00;;;;;;;0.65;86.40;96459.31;110485;1274;22977;-76
2023/12/28 08:52:13;;;;;;;28.30;17.00;;;;;;;0.65;85.96;96458.66;110563;1274;22125;-76
2023/12/28 08:54:42;;;;;;;31.50;16.90;;;;;;;0.75;86.29;96458.11;110519;1274;22208;-76
2023/12/28 08:57:10;;;;;;;29.40;16.50;;;;;;;0.78;86.00;96455.79;110538;1274;22857;-76
2023/12/28 08:59:39;;;;;;;28.90;16.80;;;;;;;0.91;86.16;96453.77;110524;1274;22118;-76
2023/12/28 09:02:08;;;;;;;28.10;17.10;;;;;;;0.94;85.81;96451.97;110492;1274;22161;-76
2023/12/28 09:04:36;;;;;;;61.30;32.60;;;;;;;0.99;85.90;96449.17;110536;1274;22143;-76
2023/12/28 09:07:04;;;;;;;37.40;21.60;;;;;;;1.15;86.48;96445.70;110570;1274;22906;-76
2023/12/28 09:09:33;;;;;;;34.00;22.50;;;;;;;1.20;85.68;96435.12;110533;1274;22808;-76
2023/12/28 09:12:01;;;;;;;28.60;19.80;;;;;;;1.24;85.72;96430.55;110572;1274;22981;-76
2023/12/28 09:14:30;;;;;;;33.30;22.60;;;;;;;1.23;85.64;96426.90;110607;1274;22112;-76
2023/12/28 09:16:58;;;;;;;33.00;20.90;;;;;;;1.33;86.19;96419.74;110524;1274;22278;-76
2023/12/28 09:19:26;;;;;;;31.30;20.30;;;;;;;1.46;86.21;96416.65;110605;1274;22748;-76
2023/12/28 09:21:54;;;;;;;40.80;24.10;;;;;;;1.47;85.57;96419.46;110554;1274;22261;-76
2023/12/28 09:24:23;;;;;;;31.60;19.80;;;;;;;1.54;86.07;96419.86;110634;1274;22112;-76
2023/12/28 09:26:51;;;;;;;35.00;22.10;;;;;;;1.65;85.77;96419.13;110587;1274;22126;-76
2023/12/28 09:29:19;;;;;;;31.60;21.00;;;;;;;1.70;85.60;96410.06;110539;1274;22127;-76
2023/12/28 09:31:47;;;;;;;30.50;20.50;;;;;;;1.78;85.78;96407.01;110623;1274;22267;-76
2023/12/28 09:34:16;;;;;;;28.70;18.40;;;;;;;1.83;85.37;96400.90;110607;1274;22589;-76
2023/12/28 09:36:45;;;;;;;28.90;18.70;;;;;;;1.89;85.63;96401.08;110504;1274;22850;-76
2023/12/28 09:39:13;;;;;;;22.90;15.40;;;;;;;2.00;85.64;96398.95;110647;1274;22139;-76
2023/12/28 09:41:45;;;;;;;24.10;15.30;;;;;;;2.04;85.33;96391.06;110607;1274;22131;-76
2023/12/28 09:44:18;;;;;;;16.10;10.60;;;;;;;2.15;85.68;96390.50;110597;1274;22889;-76
2023/12/28 09:46:47;;;;;;;29.50;16.00;;;;;;;2.23;85.28;96385.84;110586;1274;22352;-76
2023/12/28 09:49:16;;;;;;;16.40;10.60;;;;;;;2.48;85.61;96377.30;110604;1274;22922;-76
2023/12/28 09:51:46;;;;;;;8.80;5.60;;;;;;;2.90;85.58;96366.48;110548;1274;22120;-76
2023/12/28 09:54:14;;;;;;;9.60;5.50;;;;;;;3.42;85.29;96357.91;110544;1274;22129;-76
2023/12/28 09:56:43;;;;;;;15.50;6.20;;;;;;;3.95;84.57;96349.23;110594;1269;22209;-76
2023/12/28 09:59:13;;;;;;;11.80;6.70;;;;;;;4.48;82.95;96342.88;110614;1274;22135;-76
2023/12/28 10:01:43;;;;;;;9.10;4.80;;;;;;;4.97;80.57;96339.65;110506;1274;22413;-76
2023/12/28 10:04:11;;;;;;;6.60;3.90;;;;;;;5.41;80.54;96334.00;110601;1274;22216;-76
2023/12/28 10:06:39;;;;;;;8.60;4.80;;;;;;;6.01;80.02;96329.16;110520;1274;22144;-76
2023/12/28 10:09:07;;;;;;;10.40;4.80;;;;;;;6.56;79.36;96320.27;110537;1274;22285;-76
2023/12/28 10:11:36;;;;;;;15.70;5.30;;;;;;;7.15;76.67;96313.72;110603;1274;22843;-76
2023/12/28 10:14:04;;;;;;;14.80;6.60;;;;;;;7.60;75.68;96310.96;110632;1274;22856;-76
2023/12/28 10:16:33;;;;;;;9.50;4.10;;;;;;;7.95;71.34;96306.90;110567;1270;22145;-76
2023/12/28 10:19:01;;;;;;;16.30;6.80;;;;;;;8.28;72.53;96303.48;110565;1274;22192;-76
2023/12/28 10:21:29;;;;;;;4.00;2.60;;;;;;;8.76;72.48;96303.73;110590;1274;22466;-76
2023/12/28 10:23:58;;;;;;;5.70;3.90;;;;;;;9.31;71.32;96296.80;110553;1274;22124;-76
2023/12/28 10:26:27;;;;;;;5.30;2.70;;;;;;;9.85;66.00;96289.94;110606;1274;22254;-76
2023/12/28 10:29:03;;;;;;;6.70;3.80;;;;;;;10.08;61.15;96285.44;110533;1274;22218;-76
2023/12/28 10:31:31;;;;;;;4.90;2.10;;;;;;;10.41;63.95;96279.28;110582;1274;22204;-76
2023/12/28 10:34:02;;;;;;;2.60;1.40;;;;;;;10.75;61.88;96276.91;110558;1274;22945;-75
2023/12/28 10:36:36;;;;;;;2.30;1.50;;;;;;;11.17;62.43;96275.66;110617;1274;22138;-76
2023/12/28 10:39:08;;;;;;;5.00;2.90;;;;;;;11.60;63.15;96274.48;110612;1274;22168;-76
2023/12/28 10:41:39;;;;;;;3.50;2.40;;;;;;;11.83;58.80;96265.59;110593;1274;22122;-76
2023/12/28 10:44:10;;;;;;;4.80;2.70;;;;;;;11.75;54.75;96259.14;110612;1274;22158;-76
2023/12/28 10:46:43;;;;;;;4.10;2.50;;;;;;;12.09;57.04;96255.74;110545;1274;22217;-76
2023/12/28 10:49:12;;;;;;;4.30;2.70;;;;;;;12.34;53.99;96260.48;110654;1274;22285;-76
2023/12/28 10:51:43;;;;;;;4.70;3.20;;;;;;;12.50;53.06;96252.50;110535;1274;22148;-76
2023/12/28 10:54:27;;;;;;;3.30;1.90;;;;;;;12.74;53.80;96250.33;110557;1274;22209;-76
2023/12/28 10:57:15;;;;;;;;;;;;;;;13.06;53.00;96246.26;110594;1274;22330;-76
2023/12/28 11:00:02;;;;;;;6.60;2.80;;;;;;;13.05;49.62;96242.21;110531;1265;22147;-76
2023/12/28 11:02:38;;;;;;;3.80;2.40;;;;;;;13.20;49.80;96245.46;110556;1274;22192;-76
2023/12/28 11:05:08;;;;;;;3.70;2.10;;;;;;;13.26;50.30;96245.36;110582;1274;22852;-76
2023/12/28 11:07:36;;;;;;;3.90;3.40;;;;;;;13.35;47.13;96246.29;110598;1274;22351;-76
2023/12/28 11:10:06;;;;;;;4.10;3.10;;;;;;;13.44;48.71;96241.52;110570;1274;22164;-76
2023/12/28 11:12:37;;;;;;;4.50;2.80;;;;;;;13.49;48.92;96234.17;110588;1274;23161;-76
2023/12/28 11:15:07;;;;;;;4.30;2.90;;;;;;;13.62;48.77;96227.35;110627;1274;22935;-76
2023/12/28 11:17:40;;;;;;;3.60;2.70;;;;;;;13.72;49.16;96220.09;110580;1274;22129;-76
2023/12/28 11:20:09;;;;;;;4.30;3.00;;;;;;;13.71;46.81;96220.13;110549;1274;22218;-76
2023/12/28 11:22:39;;;;;;;5.70;4.50;;;;;;;13.67;47.19;96220.17;110594;1274;22189;-76
2023/12/28 11:25:15;;;;;;;9.00;3.60;;;;;;;13.67;46.56;96212.94;110624;1274;22124;-76
2023/12/28 11:27:43;;;;;;;5.00;3.60;;;;;;;13.63;46.58;96206.65;110638;1274;22292;-76
2023/12/28 11:30:13;;;;;;;39.70;25.70;;;;;;;13.79;47.13;96202.45;110557;1274;22193;-76